Time;durP1;ratioP1;P1;durP2;ratioP2;P2;SDS_P1;SDS_P2;PMS_P1;PMS_P2;Temp;Humidity;BMP_temperature;BMP_pressure;BME280_temperature;BME280_humidity;BME280_pressure;Samples;Min_cycle;Max_cycle;Signal;HPM_P1;HPM_P2
2023/02/19 00:01:52;;;;;;;;;;;;;;;17.27;52.03;101969.41;7251838;19;154026;-59
2023/02/19 00:04:21;;;;;;;;;;;;;;;17.26;52.22;101970.50;7250505;19;154228;-56
2023/02/19 00:06:48;;;;;;;;;;;;;;;17.26;52.02;101978.09;7251728;19;152575;-56
2023/02/19 00:09:18;;;;;;;;;;;;;;;17.26;51.91;101972.50;7252191;19;152097;-56
2023/02/19 00:11:46;;;;;;;;;;;;;;;17.25;52.34;101974.44;7250849;19;154246;-56
2023/02/19 00:14:14;;;;;;;;;;;;;;;17.26;52.17;101980.88;7252408;19;153814;-56
2023/02/19 00:16:41;;;;;;;;;;;;;;;17.24;52.14;101988.66;7252258;19;153754;-56
2023/02/19 00:19:11;;;;;;;;;;;;;;;17.24;52.08;101989.50;7252467;19;155313;-56
2023/02/19 00:21:38;;;;;;;;;;;;;;;17.25;51.86;101988.41;7259754;19;153155;-56
2023/02/19 00:24:06;;;;;;;;;;;;;;;17.24;51.91;101986.72;7245229;19;154001;-56
2023/02/19 00:26:33;;;;;;;;;;;;;;;17.25;51.92;101987.56;7250226;19;151900;-56
2023/02/19 00:29:00;;;;;;;;;;;;;;;17.23;51.90;101993.41;7250188;19;153932;-56
2023/02/19 00:31:30;;;;;;;;;;;;;;;17.24;51.88;101992.28;7249059;19;153665;-56
2023/02/19 00:34:04;;;;;;;;;;;;;;;17.23;51.85;101993.41;7251943;19;153008;-56
2023/02/19 00:36:34;;;;;;;;;;;;;;;17.24;51.89;101997.03;7249702;19;153924;-56
2023/02/19 00:39:02;;;;;;;;;;;;;;;17.24;52.03;102003.47;7248827;19;154260;-56
2023/02/19 00:41:29;;;;;;;;;;;;;;;17.24;51.73;102008.19;7251936;19;153994;-56
2023/02/19 00:43:56;;;;;;;;;;;;;;;17.23;52.11;102014.88;7255865;19;153093;-56
2023/02/19 00:46:23;;;;;;;;;;;;;;;17.24;51.81;102013.78;7249398;19;156582;-56
2023/02/19 00:48:51;;;;;;;;;;;;;;;17.23;52.06;102015.72;7246124;19;152437;-56
2023/02/19 00:51:21;;;;;;;;;;;;;;;17.22;51.77;102025.22;7250768;19;154095;-56
2023/02/19 00:53:48;;;;;;;;;;;;;;;17.22;51.93;102028.00;7246088;19;152910;-56
2023/02/19 00:56:15;;;;;;;;;;;;;;;17.22;52.13;102039.16;7250157;19;154757;-56
2023/02/19 00:58:42;;;;;;;;;;;;;;;17.22;51.90;102036.38;7249320;19;153315;-56
2023/02/19 01:01:09;;;;;;;;;;;;;;;17.23;51.99;102040.03;7254008;19;153608;-56
2023/02/19 01:03:37;;;;;;;;;;;;;;;17.20;51.84;102035.81;7259421;19;153925;-56
2023/02/19 01:06:05;;;;;;;;;;;;;;;17.22;52.14;102041.97;7253191;19;153865;-56
2023/02/19 01:08:33;;;;;;;;;;;;;;;17.22;51.92;102035.53;7250372;19;152993;-56
2023/02/19 01:11:00;;;;;;;;;;;;;;;17.22;51.90;102041.97;7248897;19;153413;-56
2023/02/19 01:13:27;;;;;;;;;;;;;;;17.21;51.86;102053.41;7248971;19;154049;-56
2023/02/19 01:15:57;;;;;;;;;;;;;;;17.21;51.93;102045.88;7248653;19;153144;-56
2023/02/19 01:18:24;;;;;;;;;;;;;;;17.20;51.85;102046.13;7251854;19;154141;-56
2023/02/19 01:20:53;;;;;;;;;;;;;;;17.21;52.21;102051.47;7251938;19;154092;-56
2023/02/19 01:23:20;;;;;;;;;;;;;;;17.22;51.93;102055.09;7252862;19;154639;-56
2023/02/19 01:25:47;;;;;;;;;;;;;;;17.22;52.21;102053.13;7255866;19;153684;-56
2023/02/19 01:28:14;;;;;;;;;;;;;;;17.22;52.21;102052.28;7250358;19;153733;-56
2023/02/19 01:30:41;;;;;;;;;;;;;;;17.21;52.13;102045.03;7248846;19;155344;-56
2023/02/19 01:33:09;;;;;;;;;;;;;;;17.22;51.83;102055.09;7249124;19;152720;-56
2023/02/19 01:35:37;;;;;;;;;;;;;;;17.22;51.82;102052.28;7250228;19;153443;-56
2023/02/19 01:38:06;;;;;;;;;;;;;;;17.20;51.93;102046.97;7244558;19;154032;-56
2023/02/19 01:40:33;;;;;;;;;;;;;;;17.19;52.17;102056.47;7250217;19;153318;-55
2023/02/19 01:43:00;;;;;;;;;;;;;;;17.19;52.11;102066.78;7249858;19;154465;-55
2023/02/19 01:45:29;;;;;;;;;;;;;;;17.20;52.11;102062.88;7250023;19;157206;-55
2023/02/19 01:48:00;;;;;;;;;;;;;;;17.20;52.02;102072.13;7255504;19;153078;-56
2023/02/19 01:50:28;;;;;;;;;;;;;;;17.21;51.88;102079.41;7246309;19;154089;-55
2023/02/19 01:52:55;;;;;;;;;;;;;;;17.21;51.78;102082.19;7249266;19;153798;-55
2023/02/19 01:55:22;;;;;;;;;;;;;;;17.20;51.94;102086.09;7251220;19;153138;-56
2023/02/19 01:57:52;;;;;;;;;;;;;;;17.22;52.08;102080.22;7247402;19;154589;-56
2023/02/19 02:00:19;;;;;;;;;;;;;;;17.22;52.01;102060.66;7248161;19;152507;-56
2023/02/19 02:02:48;;;;;;;;;;;;;;;17.17;51.93;102063.41;7248702;19;153138;-55
2023/02/19 02:05:18;;;;;;;;;;;;;;;17.17;52.24;102063.41;7252920;19;153037;-55
2023/02/19 02:12:45;;;;;;;;;;;;;;;17.16;51.95;102054.19;7255393;19;154224;-55
2023/02/19 02:15:12;;;;;;;;;;;;;;;17.16;51.72;102062.56;7255746;19;153833;-56
2023/02/19 02:17:48;;;;;;;;;;;;;;;17.18;51.98;102067.88;7251783;19;154419;-55
2023/02/19 02:20:15;;;;;;;;;;;;;;;17.17;51.95;102069.81;7255677;19;152495;-56
2023/02/19 02:22:45;;;;;;;;;;;;;;;17.16;51.87;102073.75;7253970;19;153947;-56
2023/02/19 02:25:14;;;;;;;;;;;;;;;17.16;51.97;102072.91;7248875;19;153233;-56
2023/02/19 02:27:44;;;;;;;;;;;;;;;17.17;51.95;102074.59;7256213;19;153424;-56
2023/02/19 02:30:14;;;;;;;;;;;;;;;17.14;51.83;102075.94;7254400;19;154086;-56
2023/02/19 02:32:52;;;;;;;;;;;;;;;17.15;51.73;102082.38;7263842;19;154167;-56
2023/02/19 02:35:22;;;;;;;;;;;;;;;17.14;52.20;102087.09;7254578;19;154437;-56
2023/02/19 02:37:50;;;;;;;;;;;;;;;17.15;51.78;102094.38;7252178;19;152461;-56
2023/02/19 02:40:17;;;;;;;;;;;;;;;17.15;51.78;102096.31;7254376;19;152513;-56
2023/02/19 02:42:44;;;;;;;;;;;;;;;17.17;52.05;102091.34;7255738;19;154419;-56
2023/02/19 02:47:54;;;;;;;;;;;;;;;17.16;51.77;102110.03;7241553;19;154792;-57
2023/02/19 02:50:24;;;;;;;;;;;;;;;17.14;51.80;102095.47;7254066;19;154256;-56
2023/02/19 02:55:27;;;;;;;;;;;;;;;17.15;51.80;102099.13;7262119;19;153791;-56
2023/02/19 02:57:54;;;;;;;;;;;;;;;17.13;52.03;102102.16;7239703;19;154141;-56
2023/02/19 03:00:23;;;;;;;;;;;;;;;17.14;51.66;102103.00;7249992;19;155249;-56
2023/02/19 03:02:50;;;;;;;;;;;;;;;17.15;51.54;102108.34;7255370;19;154546;-56
2023/02/19 03:07:54;;;;;;;;;;;;;;;17.13;52.09;102107.75;7254983;19;154764;-56
2023/02/19 03:10:23;;;;;;;;;;;;;;;17.13;52.13;102113.31;7254075;19;153731;-56
2023/02/19 03:20:33;;;;;;;;;;;;;;;17.13;51.88;102118.91;7254782;19;154465;-56
2023/02/19 03:23:00;;;;;;;;;;;;;;;17.14;51.91;102120.59;7254174;19;154532;-56
2023/02/19 03:28:02;;;;;;;;;;;;;;;17.14;51.78;102131.78;7254521;19;154009;-56
2023/02/19 03:30:32;;;;;;;;;;;;;;;17.13;51.93;102129.22;7252608;19;152909;-56
2023/02/19 03:33:02;;;;;;;;;;;;;;;17.14;51.52;102126.19;7253983;19;154671;-56
2023/02/19 03:35:30;;;;;;;;;;;;;;;17.13;51.29;102135.66;7254915;19;154134;-57
2023/02/19 03:38:00;;;;;;;;;;;;;;;17.11;51.71;102137.88;7257608;19;153897;-56
2023/02/19 03:40:30;;;;;;;;;;;;;;;17.13;51.66;102135.66;7256088;19;154162;-56
2023/02/19 03:43:00;;;;;;;;;;;;;;;17.12;51.33;102135.94;7256019;19;153135;-56
2023/02/19 03:45:29;;;;;;;;;;;;;;;17.11;51.75;102135.09;7252340;19;154797;-56
2023/02/19 03:48:01;;;;;;;;;;;;;;;17.13;51.51;102138.47;7254093;19;153273;-56
2023/02/19 03:50:35;;;;;;;;;;;;;;;17.11;51.49;102143.47;7255742;19;153176;-57
2023/02/19 03:53:03;;;;;;;;;;;;;;;17.13;51.51;102144.03;7251217;19;153864;-56
2023/02/19 03:55:37;;;;;;;;;;;;;;;17.12;51.41;102150.75;7253812;19;153972;-56
2023/02/19 03:58:07;;;;;;;;;;;;;;;17.12;51.37;102163.88;7252346;19;153463;-56
2023/02/19 04:00:38;;;;;;;;;;;;;;;17.11;51.45;102163.03;7258271;19;155842;-56
2023/02/19 04:03:10;;;;;;;;;;;;;;;17.10;51.68;102164.13;7254889;19;153468;-56
2023/02/19 04:05:41;;;;;;;;;;;;;;;17.10;51.38;102161.31;7252506;19;153707;-56
2023/02/19 04:08:11;;;;;;;;;;;;;;;17.10;51.69;102171.63;7252916;19;154375;-56
2023/02/19 04:10:39;;;;;;;;;;;;;;;17.09;51.59;102170.78;7253895;19;154480;-56
2023/02/19 04:13:09;;;;;;;;;;;;;;;17.09;51.39;102181.97;7250497;19;153761;-56
2023/02/19 04:15:38;;;;;;;;;;;;;;;17.08;51.33;102177.47;7252932;19;155024;-56
2023/02/19 04:18:07;;;;;;;;;;;;;;;17.10;51.41;102175.28;7252538;19;153560;-56
2023/02/19 04:20:37;;;;;;;;;;;;;;;17.10;51.53;102177.22;7252076;19;154560;-56
2023/02/19 04:23:04;;;;;;;;;;;;;;;17.10;51.37;102183.66;7260324;19;154211;-56
2023/02/19 04:25:32;;;;;;;;;;;;;;;17.12;51.41;102191.78;7251391;19;152316;-56
2023/02/19 04:27:59;;;;;;;;;;;;;;;17.09;51.17;102181.97;7253124;19;154256;-56
2023/02/19 04:30:25;;;;;;;;;;;;;;;17.09;51.30;102195.06;7251567;19;154703;-56
2023/02/19 04:32:52;;;;;;;;;;;;;;;17.09;50.91;102201.50;7251064;19;154294;-56
2023/02/19 04:35:19;;;;;;;;;;;;;;;17.08;51.01;102208.19;7253489;19;153881;-56
2023/02/19 04:37:46;;;;;;;;;;;;;;;17.08;51.22;102208.19;7251147;19;154432;-56
2023/02/19 04:40:12;;;;;;;;;;;;;;;17.09;50.97;102206.25;7251909;19;157182;-56
2023/02/19 04:42:39;;;;;;;;;;;;;;;17.07;50.91;102208.47;7251763;19;155072;-56
2023/02/19 04:45:06;;;;;;;;;;;;;;;17.07;50.99;102214.03;7259224;19;153244;-56
2023/02/19 04:47:33;;;;;;;;;;;;;;;17.10;51.07;102216.31;7253186;19;153584;-56
2023/02/19 04:50:00;;;;;;;;;;;;;;;17.07;50.94;102220.47;7255313;19;153507;-56
2023/02/19 04:52:26;;;;;;;;;;;;;;;17.07;50.88;102223.28;7248949;19;154755;-56
2023/02/19 04:54:55;;;;;;;;;;;;;;;17.06;50.90;102216.00;7253277;19;153946;-56
2023/02/19 04:57:22;;;;;;;;;;;;;;;17.07;51.15;102228.00;7251472;19;153404;-56
2023/02/19 04:59:49;;;;;;;;;;;;;;;17.06;50.90;102223.50;7251147;19;154036;-56
2023/02/19 05:02:16;;;;;;;;;;;;;;;17.05;50.75;102222.66;7250531;19;154261;-56
2023/02/19 05:04:43;;;;;;;;;;;;;;;17.06;50.84;102237.47;7253032;19;153255;-56
2023/02/19 05:07:09;;;;;;;;;;;;;;;17.04;51.01;102237.72;7258508;19;153741;-56
2023/02/19 05:09:36;;;;;;;;;;;;;;;17.04;50.81;102239.66;7251761;19;154352;-56
2023/02/19 05:12:03;;;;;;;;;;;;;;;17.06;50.77;102243.91;7248910;19;155765;-56
2023/02/19 05:14:30;;;;;;;;;;;;;;;17.06;50.77;102241.13;7251703;19;153009;-56
2023/02/19 05:16:56;;;;;;;;;;;;;;;17.06;50.92;102241.13;7250831;19;152919;-56
2023/02/19 05:19:23;;;;;;;;;;;;;;;17.05;50.66;102244.16;7248873;19;153158;-56
2023/02/19 05:21:52;;;;;;;;;;;;;;;17.04;50.44;102246.09;7251690;19;153302;-56
2023/02/19 05:24:19;;;;;;;;;;;;;;;17.03;50.75;102260.31;7249854;19;155952;-56
2023/02/19 05:26:47;;;;;;;;;;;;;;;17.03;50.46;102252.81;7255925;19;152410;-56
2023/02/19 05:29:13;;;;;;;;;;;;;;;17.05;50.77;102258.13;7250881;19;154824;-56
2023/02/19 05:31:40;;;;;;;;;;;;;;;17.02;50.53;102256.69;7249046;19;153229;-56
2023/02/19 05:34:07;;;;;;;;;;;;;;;17.03;50.62;102263.13;7250389;19;152058;-56
2023/02/19 05:36:36;;;;;;;;;;;;;;;17.02;50.45;102269.78;7251997;19;153838;-56
2023/02/19 05:39:05;;;;;;;;;;;;;;;17.00;50.43;102271.97;7243437;19;154998;-56
2023/02/19 05:41:32;;;;;;;;;;;;;;;17.01;50.64;102273.69;7250572;19;152781;-56
2023/02/19 05:43:59;;;;;;;;;;;;;;;17.03;50.62;102280.72;7250319;19;153607;-56
2023/02/19 05:46:28;;;;;;;;;;;;;;;17.02;50.66;102272.59;7249302;19;153359;-57
2023/02/19 05:48:57;;;;;;;;;;;;;;;17.01;50.25;102277.31;7258060;19;152757;-56
2023/02/19 05:51:24;;;;;;;;;;;;;;;17.03;50.71;102279.88;7250423;19;153936;-56
2023/02/19 05:53:51;;;;;;;;;;;;;;;17.01;50.75;102265.31;7250865;19;152817;-56
2023/02/19 05:56:21;;;;;;;;;;;;;;;16.99;50.43;102259.97;7249803;19;154699;-56
2023/02/19 05:58:48;;;;;;;;;;;;;;;16.99;50.72;102259.97;7247445;19;156026;-56
2023/02/19 06:01:15;;;;;;;;;;;;;;;17.00;50.40;102256.06;7251356;19;152808;-56
2023/02/19 06:03:42;;;;;;;;;;;;;;;17.01;50.51;102262.50;7250799;19;153195;-56
2023/02/19 06:06:11;;;;;;;;;;;;;;;16.99;50.52;102271.13;7249941;19;154174;-56
2023/02/19 06:08:38;;;;;;;;;;;;;;;16.98;50.72;102269.47;7248116;19;153631;-56
2023/02/19 06:11:05;;;;;;;;;;;;;;;17.02;50.56;102286.53;7256465;19;154071;-56
2023/02/19 06:13:32;;;;;;;;;;;;;;;17.00;50.24;102275.63;7248266;19;152699;-56
2023/02/19 06:15:58;;;;;;;;;;;;;;;17.00;50.41;102277.56;7249868;19;153728;-56
2023/02/19 06:18:25;;;;;;;;;;;;;;;16.98;50.65;102283.41;7248101;19;154652;-56
2023/02/19 06:20:52;;;;;;;;;;;;;;;16.99;50.67;102289.84;7251443;19;154246;-56
2023/02/19 06:23:19;;;;;;;;;;;;;;;17.00;50.26;102285.94;7247975;19;153585;-56
2023/02/19 06:25:45;;;;;;;;;;;;;;;16.99;50.30;102290.66;7249195;19;152872;-56
2023/02/19 06:28:12;;;;;;;;;;;;;;;17.00;50.39;102292.38;7249808;19;153064;-56
2023/02/19 06:30:39;;;;;;;;;;;;;;;16.99;50.56;102293.47;7247625;19;152465;-56
2023/02/19 06:33:08;;;;;;;;;;;;;;;16.98;50.57;102294.59;7256293;19;154113;-56
2023/02/19 06:35:35;;;;;;;;;;;;;;;16.98;50.61;102299.31;7249045;19;153783;-56
2023/02/19 06:38:02;;;;;;;;;;;;;;;16.99;50.52;102298.22;7244477;19;155020;-56
2023/02/19 06:40:31;;;;;;;;;;;;;;;16.98;50.63;102299.31;7249124;19;152117;-56
2023/02/19 06:42:57;;;;;;;;;;;;;;;16.98;50.53;102307.69;7247910;19;154320;-56
2023/02/19 06:45:24;;;;;;;;;;;;;;;16.98;50.36;102304.91;7247150;19;155477;-56
2023/02/19 06:47:51;;;;;;;;;;;;;;;16.98;50.43;102319.72;7248341;19;154712;-56
2023/02/19 06:50:18;;;;;;;;;;;;;;;17.00;50.25;102328.66;7251009;19;153816;-56
2023/02/19 06:52:44;;;;;;;;;;;;;;;16.99;50.23;102328.94;7254644;19;153486;-56
2023/02/19 06:55:11;;;;;;;;;;;;;;;17.00;50.60;102322.22;7262842;19;153575;-56
2023/02/19 06:57:38;;;;;;;;;;;;;;;16.98;50.57;102332.81;7252938;19;154111;-56
2023/02/19 07:00:05;;;;;;;;;;;;;;;16.97;50.14;102322.75;7256317;19;153456;-56
2023/02/19 07:02:32;;;;;;;;;;;;;;;16.98;50.61;102321.66;7257659;19;153454;-56
2023/02/19 07:04:58;;;;;;;;;;;;;;;16.99;50.13;102334.53;7258322;19;153602;-56
2023/02/19 07:07:25;;;;;;;;;;;;;;;16.97;50.34;102336.69;7254794;19;153704;-56
2023/02/19 07:09:52;;;;;;;;;;;;;;;16.98;50.18;102341.19;7255449;19;152325;-56
2023/02/19 07:12:18;;;;;;;;;;;;;;;16.97;50.29;102340.34;7254140;19;153612;-56
2023/02/19 07:14:45;;;;;;;;;;;;;;;16.99;50.04;102352.09;7263226;19;153731;-56
2023/02/19 07:17:12;;;;;;;;;;;;;;;16.96;50.27;102363.78;7252112;19;153335;-55
2023/02/19 07:19:38;;;;;;;;;;;;;;;16.97;50.42;102362.69;7254799;19;152612;-56
2023/02/19 07:22:05;;;;;;;;;;;;;;;16.97;50.14;102359.03;7253083;19;153901;-56
2023/02/19 07:24:32;;;;;;;;;;;;;;;16.96;50.30;102358.19;7253899;19;153562;-56
2023/02/19 07:26:59;;;;;;;;;;;;;;;16.95;50.35;102361.22;7256859;19;154299;-56
2023/02/19 07:29:26;;;;;;;;;;;;;;;16.95;50.26;102376.03;7255680;19;153359;-56
2023/02/19 07:31:55;;;;;;;;;;;;;;;16.96;50.13;102391.69;7255454;19;153660;-56
2023/02/19 07:34:21;;;;;;;;;;;;;;;16.98;50.41;102395.09;7256174;19;154251;-56
2023/02/19 07:36:48;;;;;;;;;;;;;;;16.97;50.25;102387.81;7261046;19;153555;-56
2023/02/19 07:39:15;;;;;;;;;;;;;;;16.98;50.40;102381.13;7253392;19;153762;-56
2023/02/19 07:41:42;;;;;;;;;;;;;;;16.96;50.11;102390.84;7253019;19;152633;-56
2023/02/19 07:44:08;;;;;;;;;;;;;;;16.96;50.28;102394.47;7253506;19;153181;-56
2023/02/19 07:46:35;;;;;;;;;;;;;;;16.97;50.36;102400.91;7253028;19;153201;-56
2023/02/19 07:49:02;;;;;;;;;;;;;;;16.96;50.34;102402.84;7253638;19;153776;-56
2023/02/19 07:51:29;;;;;;;;;;;;;;;16.98;50.13;102405.41;7253679;19;154059;-56
2023/02/19 07:53:56;;;;;;;;;;;;;;;16.95;50.22;102431.88;7253305;19;154034;-56
2023/02/19 07:56:23;;;;;;;;;;;;;;;16.96;50.32;102414.03;7254937;19;152452;-56
2023/02/19 07:58:50;;;;;;;;;;;;;;;16.96;49.96;102411.22;7260953;19;153916;-56
2023/02/19 08:01:18;;;;;;;;;;;;;;;16.96;50.24;102419.59;7254453;19;153681;-56
2023/02/19 08:03:45;;;;;;;;;;;;;;;16.97;50.14;102414.88;7253980;19;153518;-56
2023/02/19 08:06:14;;;;;;;;;;;;;;;16.96;50.07;102427.13;7255385;19;154239;-56
2023/02/19 08:08:41;;;;;;;;;;;;;;;16.96;50.37;102424.34;7252951;19;152382;-56
2023/02/19 08:13:38;;;;;;;;;;;;;;;16.96;50.11;102447.53;7252008;19;154130;-56
2023/02/19 08:16:07;;;;;;;;;;;;;;;16.96;50.36;102449.47;7253105;19;154178;-56
2023/02/19 08:18:46;;;;;;;;;;;;;;;16.96;50.10;102455.91;7250969;19;154374;-56
2023/02/19 08:21:13;;;;;;;;;;;;;;;16.96;50.04;102457.84;7261987;19;153297;-56
2023/02/19 08:23:40;;;;;;;;;;;;;;;16.96;50.05;102469.00;7250770;19;152413;-56
2023/02/19 08:26:09;;;;;;;;;;;;;;;16.94;50.11;102483.22;7253629;19;153297;-56
2023/02/19 08:28:36;;;;;;;;;;;;;;;16.95;50.44;102490.50;7254081;19;153878;-56
2023/02/19 08:31:05;;;;;;;;;;;;;;;16.97;50.14;102493.03;7252442;19;153907;-56
2023/02/19 08:33:32;;;;;;;;;;;;;;;16.95;50.21;102498.88;7252853;19;153995;-56
2023/02/19 08:36:03;;;;;;;;;;;;;;;16.95;49.99;102496.06;7253286;19;153581;-56
2023/02/19 08:38:30;;;;;;;;;;;;;;;16.95;50.17;102498.00;7249824;19;153256;-56
2023/02/19 08:41:13;;;;;;;;;;;;;;;16.94;50.31;102491.63;7252585;19;152599;-56
2023/02/19 08:43:41;;;;;;;;;;;;;;;16.93;50.15;102500.22;7260476;19;153918;-55
2023/02/19 08:46:08;;;;;;;;;;;;;;;16.95;50.43;102514.75;7251088;19;154312;-57
2023/02/19 08:48:36;;;;;;;;;;;;;;;16.95;50.03;102500.81;7253022;19;154496;-56
2023/02/19 08:51:06;;;;;;;;;;;;;;;16.94;50.29;102491.63;7249339;19;153285;-56
2023/02/19 08:53:35;;;;;;;;;;;;;;;16.94;50.02;102483.22;7251459;19;153147;-58
2023/02/19 08:56:05;;;;;;;;;;;;;;;16.94;50.20;102462.84;7250218;19;152789;-56
2023/02/19 08:58:32;;;;;;;;;;;;;;;16.94;50.02;102472.06;7251738;19;155889;-56
2023/02/19 09:00:59;;;;;;;;;;;;;;;16.93;50.28;102470.38;7251549;19;154160;-56
2023/02/19 09:03:26;;;;;;;;;;;;;;;16.92;50.04;102477.03;7253528;19;154405;-55
2023/02/19 09:05:55;;;;;;;;;;;;;;;16.93;50.15;102489.06;7259044;19;153941;-56
2023/02/19 09:08:21;;;;;;;;;;;;;;;16.95;49.95;102503.59;7250643;19;154836;-56
2023/02/19 09:10:51;;;;;;;;;;;;;;;16.94;49.94;102499.13;7251535;19;154904;-55
2023/02/19 09:13:18;;;;;;;;;;;;;;;16.95;49.91;102498.00;7249610;19;153220;-56
2023/02/19 09:15:45;;;;;;;;;;;;;;;16.95;50.03;102498.88;7249500;19;152338;-56
2023/02/19 09:18:12;;;;;;;;;;;;;;;16.95;49.90;102501.66;7251325;19;153774;-56
2023/02/19 09:20:39;;;;;;;;;;;;;;;16.96;50.20;102505.31;7250444;19;153799;-56
2023/02/19 09:23:06;;;;;;;;;;;;;;;16.95;49.92;102501.66;7249980;19;153373;-56
2023/02/19 09:25:33;;;;;;;;;;;;;;;16.96;49.96;102511.75;7257379;19;154108;-56
2023/02/19 09:27:59;;;;;;;;;;;;;;;16.97;49.92;102512.59;7251079;19;154542;-56
2023/02/19 09:30:26;;;;;;;;;;;;;;;16.97;50.02;102519.03;7246647;19;153205;-56
2023/02/19 09:32:56;;;;;;;;;;;;;;;16.95;50.08;102534.31;7250893;19;153428;-56
2023/02/19 09:35:22;;;;;;;;;;;;;;;16.97;49.84;102529.34;7251134;19;152450;-56
2023/02/19 09:37:49;;;;;;;;;;;;;;;16.98;50.09;102539.41;7250158;19;153270;-57
2023/02/19 09:40:20;;;;;;;;;;;;;;;16.99;49.93;102552.28;7250103;19;153694;-56
2023/02/19 09:42:49;;;;;;;;;;;;;;;16.99;49.82;102544.75;7253329;19;153596;-56
2023/02/19 09:45:21;;;;;;;;;;;;;;;17.00;49.77;102556.75;7250605;19;155396;-56
2023/02/19 09:47:48;;;;;;;;;;;;;;;17.01;49.84;102558.47;7258128;19;154354;-56
2023/02/19 09:50:19;;;;;;;;;;;;;;;17.01;49.73;102559.31;7251183;19;154341;-56
2023/02/19 09:52:51;;;;;;;;;;;;;;;17.03;49.92;102559.09;7249708;19;152926;-56
2023/02/19 09:55:25;;;;;;;;;;;;;;;17.03;49.57;102568.31;7252366;19;154645;-56
2023/02/19 09:57:53;;;;;;;;;;;;;;;17.04;49.89;102578.34;7249413;19;153392;-56
2023/02/19 10:00:21;;;;;;;;;;;;;;;17.03;49.75;102578.63;7249516;19;153867;-56
2023/02/19 10:02:50;;;;;;;;;;;;;;;17.03;49.72;102578.63;7253866;19;153223;-56
2023/02/19 10:05:17;;;;;;;;;;;;;;;17.05;49.41;102580.06;7252859;19;153204;-56
2023/02/19 10:07:49;;;;;;;;;;;;;;;17.05;49.59;102576.41;7253736;19;152823;-56
2023/02/19 10:10:22;;;;;;;;;;;;;;;17.06;49.71;102558.56;7260747;19;153499;-56
2023/02/19 10:12:51;;;;;;;;;;;;;;;17.07;49.44;102560.28;7252636;19;154194;-56
2023/02/19 10:15:21;;;;;;;;;;;;;;;17.07;49.33;102554.69;7250867;19;154225;-56
2023/02/19 10:17:48;;;;;;;;;;;;;;;17.09;49.69;102561.72;7249661;19;156790;-57
2023/02/19 10:20:17;;;;;;;;;;;;;;;17.10;49.45;102563.44;7248027;19;152306;-56
2023/02/19 10:22:44;;;;;;;;;;;;;;;17.13;49.19;102570.44;7250247;19;153010;-63
2023/02/19 10:25:13;;;;;;;;;;;;;;;17.12;49.29;102575.22;7249317;19;155915;-56
2023/02/19 10:27:40;;;;;;;;;;;;;;;17.13;49.12;102576.03;7257326;19;154736;-57
2023/02/19 10:30:15;;;;;;;;;;;;;;;17.13;49.33;102579.69;7259197;19;154090;-57
2023/02/19 10:32:59;;;;;;;;;;;;;;;17.15;49.18;102585.03;7263783;19;154562;-56
2023/02/19 10:35:26;;;;;;;;;;;;;;;17.14;49.48;102575.81;7256244;19;153077;-56
2023/02/19 10:37:53;;;;;;;;;;;;;;;17.16;49.15;102576.41;7252760;19;152754;-55
2023/02/19 10:40:21;;;;;;;;;;;;;;;17.17;49.17;102582.84;7256295;19;153811;-55
2023/02/19 10:42:49;;;;;;;;;;;;;;;17.17;49.18;102580.88;7256124;19;154550;-56
2023/02/19 10:45:18;;;;;;;;;;;;;;;17.20;49.17;102587.94;7255387;19;153822;-56
2023/02/19 10:47:47;;;;;;;;;;;;;;;17.21;49.30;102589.66;7256282;19;154226;-56
2023/02/19 10:50:16;;;;;;;;;;;;;;;17.22;49.19;102588.53;7258510;19;154244;-56
2023/02/19 10:52:43;;;;;;;;;;;;;;;17.24;49.01;102589.13;7253114;19;154249;-55
2023/02/19 10:55:16;;;;;;;;;;;;;;;17.23;49.08;102591.09;7265105;19;153996;-55
2023/02/19 10:57:45;;;;;;;;;;;;;;;17.23;49.00;102593.03;7254177;19;154282;-55
2023/02/19 11:00:12;;;;;;;;;;;;;;;17.23;48.93;102593.88;7252900;19;153613;-55
2023/02/19 11:02:40;;;;;;;;;;;;;;;17.24;48.65;102594.72;7256063;19;153352;-55
2023/02/19 11:05:10;;;;;;;;;;;;;;;17.22;49.01;102594.13;7256407;19;153586;-55
2023/02/19 11:07:42;;;;;;;;;;;;;;;17.23;48.69;102596.66;7254457;19;152211;-56
2023/02/19 11:10:19;;;;;;;;;;;;;;;17.23;48.79;102609.78;7255272;19;152937;-55
2023/02/19 11:12:49;;;;;;;;;;;;;;;17.23;49.24;102610.63;7252724;19;153571;-56
2023/02/19 11:15:20;;;;;;;;;;;;;;;17.23;49.15;102602.25;7256029;19;153705;-56
2023/02/19 11:17:50;;;;;;;;;;;;;;;17.24;48.71;102611.50;7261754;19;153434;-56
2023/02/19 11:20:17;;;;;;;;;;;;;;;17.25;48.69;102611.25;7257861;19;153871;-56
2023/02/19 11:22:45;;;;;;;;;;;;;;;17.25;48.78;102602.88;7255920;19;153895;-56
2023/02/19 11:25:13;;;;;;;;;;;;;;;17.28;49.03;102593.13;7255529;19;154960;-56
2023/02/19 11:27:43;;;;;;;;;;;;;;;17.27;48.58;102605.41;7257146;19;154322;-56
2023/02/19 11:30:13;;;;;;;;;;;;;;;17.29;48.66;102614.41;7256778;19;154229;-56
2023/02/19 11:32:40;;;;;;;;;;;;;;;17.27;48.72;102614.63;7252327;19;153025;-56
2023/02/19 11:35:10;;;;;;;;;;;;;;;17.28;48.85;102615.47;7254687;19;154605;-55
2023/02/19 11:37:52;;;;;;;;;;;;;;;17.27;48.34;102609.03;7257037;19;154269;-55
2023/02/19 11:40:20;;;;;;;;;;;;;;;17.31;48.47;102618.63;7256577;19;154596;-56
2023/02/19 11:42:55;;;;;;;;;;;;;;;17.32;48.38;102616.69;7254804;19;154066;-55
2023/02/19 11:45:25;;;;;;;;;;;;;;;17.33;48.23;102610.00;7252950;19;153434;-55
2023/02/19 11:47:52;;;;;;;;;;;;;;;17.35;48.61;102607.84;7253870;19;153969;-56
2023/02/19 11:50:23;;;;;;;;;;;;;;;17.34;48.21;102593.00;7255442;19;153104;-56
2023/02/19 11:52:52;;;;;;;;;;;;;;;17.36;48.36;102592.75;7251755;19;152860;-55
2023/02/19 11:55:36;;;;;;;;;;;;;;;17.37;48.43;102588.00;7254133;19;153994;-56
2023/02/19 11:58:06;;;;;;;;;;;;;;;17.40;48.18;102588.34;7255197;19;153361;-57
2023/02/19 12:00:38;;;;;;;;;;;;;;;17.41;48.16;102586.41;7258802;19;154647;-57
2023/02/19 12:03:08;;;;;;;;;;;;;;;17.42;48.27;102576.94;7255369;19;152944;-58
2023/02/19 12:05:38;;;;;;;;;;;;;;;17.44;48.22;102594.31;7255617;19;153551;-57
2023/02/19 12:08:14;;;;;;;;;;;;;;;17.45;47.74;102587.63;7254868;19;153367;-55
2023/02/19 12:10:41;;;;;;;;;;;;;;;17.44;47.62;102571.97;7254264;19;151959;-55
2023/02/19 12:13:11;;;;;;;;;;;;;;;17.44;47.99;102566.38;7249862;19;153787;-58
2023/02/19 12:15:41;;;;;;;;;;;;;;;17.43;47.72;102571.13;7253393;19;153421;-55
2023/02/19 12:18:08;;;;;;;;;;;;;;;17.43;47.65;102576.72;7253844;19;153822;-56
2023/02/19 12:20:38;;;;;;;;;;;;;;;17.43;47.89;102571.13;7251867;19;155051;-62
2023/02/19 12:23:08;;;;;;;;;;;;;;;17.42;47.78;102558.25;7262190;19;153811;-56
2023/02/19 12:25:42;;;;;;;;;;;;;;;17.43;47.61;102553.50;7253583;19;153190;-56
2023/02/19 12:28:09;;;;;;;;;;;;;;;17.45;47.53;102556.88;7251987;19;153796;-56
2023/02/19 12:30:39;;;;;;;;;;;;;;;17.45;47.42;102556.88;7251853;19;153367;-56
2023/02/19 12:33:10;;;;;;;;;;;;;;;17.46;47.86;102548.25;7251504;19;153844;-56
2023/02/19 12:35:38;;;;;;;;;;;;;;;17.46;47.59;102551.06;7254858;19;153981;-56
2023/02/19 12:38:13;;;;;;;;;;;;;;;17.46;47.41;102544.63;7252964;19;152956;-56
2023/02/19 12:40:43;;;;;;;;;;;;;;;17.45;47.58;102543.75;7254747;19;154184;-56
2023/02/19 12:43:13;;;;;;;;;;;;;;;17.46;47.87;102544.63;7255246;19;153434;-56
2023/02/19 12:45:44;;;;;;;;;;;;;;;17.47;47.53;102555.56;7259901;19;154018;-56
2023/02/19 12:48:14;;;;;;;;;;;;;;;17.47;47.40;102558.34;7254589;19;152798;-56
2023/02/19 12:50:43;;;;;;;;;;;;;;;17.48;47.90;102559.19;7256023;19;153061;-56
2023/02/19 12:53:20;;;;;;;;;;;;;;;17.47;47.63;102549.97;7250845;19;153290;-55
2023/02/19 12:55:47;;;;;;;;;;;;;;;17.47;47.31;102555.56;7251160;19;153908;-55
2023/02/19 12:58:19;;;;;;;;;;;;;;;17.49;47.29;102561.72;7253082;19;153631;-56
2023/02/19 13:00:49;;;;;;;;;;;;;;;17.47;47.77;102549.97;7249140;19;154094;-55